Flight Track Log - Related Links

Times and Time Zones

All times are in EDT time to prevent confusion due to time zone crossing. See the PDT4207 flight status page for this flight to view local times or setup timezone preferences in your user account.

Time Position Orientation Groundspeed Altitude Reporting Facility
EDT Latitude Longitude Course Direction KTS MPH feet Rate Location/Type
Fri 09:35:26 PM 39.9000 -75.2333 311° West 122 140 700  Level Philadelphia TRACON
Fri 09:35:56 PM 39.9000 -75.2500 270° West 105 121 1,700 1,400 Climbing Philadelphia TRACON
Fri 09:36:56 PM 39.9167 -75.3000 294° West 152 175 2,800 1,200 Climbing Philadelphia TRACON
Fri 09:37:56 PM 39.9167 -75.3500 270° West 158 182 4,100 1,400 Climbing Philadelphia TRACON
Fri 09:38:00 PM 40.0608 -75.2985 339° North  Level Estimated
Fri 09:38:56 PM 39.9333 -75.4000 294° West 157 181 5,600  Level Philadelphia TRACON
Fri 09:39:00 PM 40.1236 -75.3178 323° Northwest  Level Estimated
Fri 09:39:45 PM 39.9628 -75.4372 316° Northwest 172 198 6,700  Level New York Center
Fri 09:40:00 PM 40.1865 -75.3372 311° West  Level Estimated
Fri 09:40:45 PM 39.9972 -75.4642 329° Northwest 181 208 8,100  Level New York Center
Fri 09:41:45 PM 40.0486 -75.4839 344° North 170 196 9,000 700 Climbing New York Center
Fri 09:42:45 PM 40.0972 -75.5142 335° Northwest 200 230 9,500 1,250 Climbing New York Center
Fri 09:43:45 PM 40.1508 -75.5342 344° North 193 222 11,500 1,250 Climbing New York Center
Fri 09:44:45 PM 40.2044 -75.5461 350° North 188 216 12,000 250 Climbing New York Center
Fri 09:45:45 PM 40.2528 -75.5900 325° Northwest 203 234 12,000 700 Level New York Center
Fri 09:46:45 PM 40.2836 -75.6467 306° West 203 234 13,400 1,000 Climbing New York Center
Fri 09:47:45 PM 40.3242 -75.6767 331° Northwest 184 212 14,000 300 Climbing New York Center
Fri 09:48:45 PM 40.3750 -75.7075 335° Northwest 189 217 14,000  Level New York Center
Fri 09:49:45 PM 40.4383 -75.7367 341° North 213 245 14,000  Level New York Center
Fri 09:50:45 PM 40.4953 -75.7681 337° Northwest 226 260 14,000  Level New York Center
Fri 09:51:45 PM 40.5500 -75.8075 331° Northwest 226 260 14,000  Level New York Center
Fri 09:52:45 PM 40.6050 -75.8361 338° Northwest 226 260 14,000  Level New York Center
Fri 09:53:45 PM 40.6622 -75.8650 339° North 231 266 14,000  Level New York Center
Fri 09:54:45 PM 40.7322 -75.8811 350° North 226 260 14,000  Level New York Center
Fri 09:55:45 PM 40.7961 -75.8969 349° North 226 260 14,000 -250 Level New York Center
Fri 09:56:45 PM 40.8628 -75.9019 357° North 231 266 13,500 -500 Descending New York Center
Fri 09:57:45 PM 40.9225 -75.9175 349° North 236 272 13,000 -550 Descending New York Center
Fri 09:58:45 PM 40.9925 -75.9339 350° North 241 277 12,400 -650 Descending New York Center
Fri 09:59:45 PM 41.0694 -75.9397 357° North 241 277 11,700 -645 Descending New York Center
Fri 10:00:46 PM 41.1419 -75.9481 355° North 247 284 11,100 -550 Descending New York Center
Fri 10:01:45 PM 41.2100 -75.9614 352° North 252 290 10,600 -555 Descending New York Center
Fri 10:02:45 PM 41.2700 -75.9742 351° North 252 290 10,000 -300 Descending New York Center
Fri 10:03:45 PM 41.3383 -75.9850 353° North 252 290 10,000  Level New York Center
Fri 10:04:45 PM 41.4083 -75.9989 352° North 233 268 10,000 -250 Level New York Center
Fri 10:05:45 PM 41.4747 -76.0094 353° North 233 268 9,500 -650 Descending New York Center
Fri 10:06:45 PM 41.5425 -76.0286 348° North 238 274 8,700 -700 Descending New York Center
Fri 10:07:45 PM 41.6042 -76.0447 349° North 243 280 8,100 -300 Descending New York Center
Fri 10:08:45 PM 41.6722 -76.0583 352° North 236 272 8,100 -100 Level New York Center
Fri 10:09:45 PM 41.7386 -76.0664 355° North 236 272 7,900 -650 Descending New York Center
Fri 10:10:45 PM 41.8072 -76.0719 357° North 236 272 6,800 -1,150 Descending New York Center
Fri 10:11:45 PM 41.8733 -76.0828 353° North 236 272 5,600 -1,150 Descending New York Center
Fri 10:12:45 PM 41.9303 -76.0650 13° North 230 265 4,500 -800 Descending New York Center
Fri 10:13:45 PM 41.9947 -76.0197 28° Northeast 230 265 4,000 -250 Descending New York Center
Fri 10:14:45 PM 42.0400 -75.9872 28° Northeast 219 252 4,000  Level New York Center
Fri 10:15:45 PM 42.0919 -75.9408 34° Northeast 207 238 4,000 -500 Level New York Center
Fri 10:16:45 PM 42.1325 -75.9189 22° Northeast 183 211 3,000 -700 Descending New York Center
Fri 10:17:45 PM 42.1564 -75.9403 326° Northwest 122 140 2,600 -500 Descending New York Center
Fri 10:18:45 PM 42.1847 -75.9622 330° Northwest 107 123 2,000 -300 Descending New York Center
Fri 10:19:45 PM 42.2097 -75.9614 North 107 123 2,000  Level New York Center

Login

Don't have an account? Register now (free) for customized features, flight alerts, and more!